Time;durP1;ratioP1;P1;durP2;ratioP2;P2;SDS_P1;SDS_P2;PMS_P1;PMS_P2;Temp;Humidity;BMP_temperature;BMP_pressure;BME280_temperature;BME280_humidity;BME280_pressure;Samples;Min_cycle;Max_cycle;Signal;HPM_P1;HPM_P2
2022/07/13 00:01:30;;;;;;;8.10;7.20;;;22.40;99.90;;;;;;5048680;28;20506;-62
2022/07/13 00:03:57;;;;;;;10.05;6.75;;;22.40;99.90;;;;;;5031451;28;20040;-63
2022/07/13 00:06:22;;;;;;;8.80;7.00;;;22.40;99.90;;;;;;5027888;28;20379;-62
2022/07/13 00:08:48;;;;;;;9.60;7.43;;;22.40;99.90;;;;;;5042475;28;20029;-62
2022/07/13 00:11:14;;;;;;;9.68;7.30;;;22.40;99.90;;;;;;5051891;28;20029;-62
2022/07/13 00:13:41;;;;;;;9.13;7.88;;;22.40;99.90;;;;;;5045449;28;20124;-63
2022/07/13 00:16:06;;;;;;;8.95;7.30;;;22.40;99.90;;;;;;5047432;28;20055;-63
2022/07/13 00:18:32;;;;;;;7.80;6.93;;;22.40;99.90;;;;;;5048344;28;20033;-63
2022/07/13 00:20:58;;;;;;;8.18;7.35;;;22.30;99.90;;;;;;5044941;28;20037;-63
2022/07/13 00:23:24;;;;;;;9.30;7.82;;;22.30;99.90;;;;;;5046518;28;20049;-63
2022/07/13 00:25:50;;;;;;;8.90;8.00;;;22.30;99.90;;;;;;5049062;28;20052;-62
2022/07/13 00:28:16;;;;;;;8.50;7.70;;;22.30;99.90;;;;;;5047618;28;20033;-62
2022/07/13 00:30:41;;;;;;;8.77;7.55;;;22.30;99.90;;;;;;5045386;28;20369;-63
2022/07/13 00:33:07;;;;;;;8.02;7.05;;;22.30;99.90;;;;;;5045007;28;20049;-63
2022/07/13 00:35:34;;;;;;;9.18;7.80;;;22.20;99.90;;;;;;5046064;28;20679;-62
2022/07/13 00:38:00;;;;;;;10.15;7.20;;;22.20;99.90;;;;;;5047889;28;20048;-62
2022/07/13 00:40:26;;;;;;;9.57;8.07;;;22.20;99.90;;;;;;5048697;28;20048;-62
2022/07/13 00:42:52;;;;;;;8.30;7.50;;;22.20;99.90;;;;;;5045216;28;20047;-62
2022/07/13 00:45:18;;;;;;;8.43;7.53;;;22.20;99.90;;;;;;5045835;28;20095;-62
2022/07/13 00:47:46;;;;;;;9.43;7.97;;;22.20;99.90;;;;;;5043925;28;20551;-61
2022/07/13 00:50:11;;;;;;;11.30;8.20;;;22.20;99.90;;;;;;5045903;28;20060;-62
2022/07/13 00:52:38;;;;;;;9.80;8.07;;;22.20;99.90;;;;;;5048577;28;20044;-62
2022/07/13 00:55:07;;;;;;;9.30;7.82;;;22.10;99.90;;;;;;5045325;28;20409;-62
2022/07/13 00:57:37;;;;;;;9.05;7.82;;;22.00;99.90;;;;;;5048414;28;20077;-63
2022/07/13 01:00:10;;;;;;;8.68;7.88;;;22.00;99.90;;;;;;5047663;28;20466;-62
2022/07/13 01:02:45;;;;;;;8.05;7.25;;;22.00;99.90;;;;;;5048304;28;20051;-63
2022/07/13 01:05:12;;;;;;;10.00;7.85;;;22.10;99.90;;;;;;5045909;28;20433;-63
2022/07/13 01:07:39;;;;;;;8.15;7.35;;;22.10;99.90;;;;;;5040125;28;20034;-62
2022/07/13 01:10:07;;;;;;;11.30;7.85;;;22.10;99.90;;;;;;5044578;28;20072;-62
2022/07/13 01:12:34;;;;;;;10.48;7.88;;;22.10;99.90;;;;;;5048037;28;20053;-64
2022/07/13 01:15:00;;;;;;;8.75;7.82;;;22.10;99.90;;;;;;5045662;28;20382;-63
2022/07/13 01:17:27;;;;;;;8.15;7.15;;;22.00;99.90;;;;;;5044817;28;20033;-63
2022/07/13 01:19:54;;;;;;;8.90;8.00;;;22.00;99.90;;;;;;5046585;28;20048;-62
2022/07/13 01:22:24;;;;;;;9.10;7.32;;;22.00;99.90;;;;;;5045991;28;20479;-63
2022/07/13 01:24:50;;;;;;;8.10;7.40;;;22.00;99.90;;;;;;5047134;28;20502;-62
2022/07/13 01:27:16;;;;;;;9.30;7.32;;;22.00;99.90;;;;;;5046125;28;20033;-62
2022/07/13 01:29:42;;;;;;;7.82;6.72;;;22.00;99.90;;;;;;5045684;28;20041;-63
2022/07/13 01:32:08;;;;;;;8.38;7.35;;;22.00;99.90;;;;;;5046205;28;20473;-62
2022/07/13 01:34:34;;;;;;;8.40;7.50;;;21.90;99.90;;;;;;5046312;28;20465;-63
2022/07/13 01:37:00;;;;;;;9.80;7.40;;;21.90;99.90;;;;;;5045857;28;20399;-62
2022/07/13 01:39:27;;;;;;;8.48;6.78;;;21.90;99.90;;;;;;5048624;28;20462;-62
2022/07/13 01:41:53;;;;;;;7.97;6.22;;;21.90;99.90;;;;;;5044969;28;20041;-62
2022/07/13 01:44:19;;;;;;;8.18;6.85;;;21.90;99.90;;;;;;5054349;28;20130;-62
2022/07/13 01:46:45;;;;;;;7.60;6.70;;;21.90;99.90;;;;;;5049113;28;20090;-62
2022/07/13 01:49:11;;;;;;;7.22;6.45;;;21.90;99.90;;;;;;5049459;28;20051;-62
2022/07/13 01:51:37;;;;;;;8.77;6.57;;;21.90;99.90;;;;;;5048086;28;20083;-63
2022/07/13 01:54:02;;;;;;;8.07;6.60;;;21.90;99.90;;;;;;5035505;28;20041;-63
2022/07/13 01:56:28;;;;;;;7.60;6.38;;;21.80;99.90;;;;;;5052607;28;20095;-63
2022/07/13 01:58:54;;;;;;;9.13;6.10;;;21.80;99.90;;;;;;5051619;28;20049;-63
2022/07/13 02:01:20;;;;;;;8.65;6.38;;;21.80;99.90;;;;;;5048657;28;20037;-64
2022/07/13 02:03:46;;;;;;;10.35;6.50;;;21.80;99.90;;;;;;5036547;28;20355;-63
2022/07/13 02:06:11;;;;;;;7.00;5.82;;;21.80;99.90;;;;;;5048928;28;20056;-63
2022/07/13 02:08:37;;;;;;;8.50;5.88;;;21.80;99.90;;;;;;5045738;28;20036;-63
2022/07/13 02:11:03;;;;;;;7.85;5.88;;;21.80;99.90;;;;;;5053325;28;20052;-63
2022/07/13 02:13:29;;;;;;;7.47;5.90;;;21.70;99.90;;;;;;5047604;28;20037;-63
2022/07/13 02:15:55;;;;;;;8.52;6.35;;;21.70;99.90;;;;;;5050719;28;20629;-63
2022/07/13 02:18:20;;;;;;;9.18;5.90;;;21.70;99.90;;;;;;5050475;28;20468;-63
2022/07/13 02:20:46;;;;;;;7.20;6.10;;;21.70;99.90;;;;;;5048526;28;20055;-62
2022/07/13 02:23:12;;;;;;;6.85;5.93;;;21.70;99.90;;;;;;5050948;28;20053;-62
2022/07/13 02:25:38;;;;;;;6.40;5.80;;;21.70;99.90;;;;;;5049995;28;20040;-63
2022/07/13 02:28:06;;;;;;;6.45;5.72;;;21.70;99.90;;;;;;5050382;28;20052;-63
2022/07/13 02:30:33;;;;;;;7.20;5.88;;;21.70;99.90;;;;;;5048514;28;20033;-63
2022/07/13 02:32:58;;;;;;;7.05;5.60;;;21.70;99.90;;;;;;5046174;28;20037;-63
2022/07/13 02:35:24;;;;;;;9.40;5.97;;;21.70;99.90;;;;;;5049323;28;20036;-62
2022/07/13 02:37:50;;;;;;;6.18;5.57;;;21.70;99.90;;;;;;5049888;28;20179;-62
2022/07/13 02:40:15;;;;;;;6.85;6.15;;;21.70;99.90;;;;;;5049958;28;20108;-63
2022/07/13 02:42:41;;;;;;;6.20;5.50;;;21.70;99.90;;;;;;5047997;28;20079;-62
2022/07/13 02:45:08;;;;;;;8.80;5.90;;;21.70;99.90;;;;;;5050367;28;20048;-63
2022/07/13 02:47:33;;;;;;;9.90;5.80;;;21.70;99.90;;;;;;5047338;28;20037;-63
2022/07/13 02:49:59;;;;;;;7.28;5.57;;;21.70;99.90;;;;;;5046935;28;20044;-63
2022/07/13 02:52:25;;;;;;;6.60;5.53;;;21.60;99.90;;;;;;5052374;28;20087;-63
2022/07/13 02:54:51;;;;;;;7.00;5.05;;;21.60;99.90;;;;;;5028999;28;20182;-63
2022/07/13 02:57:17;;;;;;;6.25;5.38;;;21.60;99.90;;;;;;5049541;28;20045;-63
2022/07/13 02:59:43;;;;;;;6.72;5.35;;;21.60;99.90;;;;;;5049419;28;20041;-63
2022/07/13 03:02:08;;;;;;;7.40;5.43;;;21.60;99.90;;;;;;5050288;28;20167;-62
2022/07/13 03:04:35;;;;;;;7.57;5.57;;;21.60;99.90;;;;;;5050269;28;20778;-63
2022/07/13 03:07:01;;;;;;;5.82;5.22;;;21.60;99.90;;;;;;5045103;28;20477;-63
2022/07/13 03:09:27;;;;;;;7.47;5.97;;;21.60;99.90;;;;;;5048407;28;20102;-63
2022/07/13 03:11:53;;;;;;;7.85;5.70;;;21.60;99.90;;;;;;5048473;28;20436;-63
2022/07/13 03:14:19;;;;;;;6.85;5.53;;;21.50;99.90;;;;;;5049000;28;20048;-63
2022/07/13 03:16:45;;;;;;;6.25;5.38;;;21.50;99.90;;;;;;5048036;28;20090;-62
2022/07/13 03:19:10;;;;;;;7.50;5.70;;;21.50;99.90;;;;;;5030934;28;20200;-63
2022/07/13 03:21:37;;;;;;;7.25;5.40;;;21.50;99.90;;;;;;5048629;28;20034;-64
2022/07/13 03:24:03;;;;;;;7.18;6.05;;;21.50;99.90;;;;;;5045991;28;20058;-63
2022/07/13 03:26:29;;;;;;;6.70;6.00;;;21.50;99.90;;;;;;5049462;28;20084;-63
2022/07/13 03:28:55;;;;;;;9.80;5.72;;;21.50;99.90;;;;;;5048543;28;20452;-63
2022/07/13 03:31:20;;;;;;;5.75;5.10;;;21.50;99.90;;;;;;5047089;28;20470;-63
2022/07/13 03:33:47;;;;;;;7.78;5.57;;;21.60;99.90;;;;;;5049113;28;20501;-63
2022/07/13 03:36:13;;;;;;;6.72;5.65;;;21.60;99.90;;;;;;5045956;28;20120;-63
2022/07/13 03:38:38;;;;;;;6.75;5.30;;;21.60;99.90;;;;;;5047347;28;20116;-63
2022/07/13 03:41:04;;;;;;;6.45;4.97;;;21.60;99.90;;;;;;5048948;28;20168;-63
2022/07/13 03:43:30;;;;;;;6.18;5.10;;;21.60;99.90;;;;;;5049195;28;20438;-63
2022/07/13 03:45:56;;;;;;;7.47;5.25;;;21.70;99.90;;;;;;5048996;28;20029;-63
2022/07/13 03:48:21;;;;;;;7.20;4.90;;;21.70;99.90;;;;;;5046831;28;20029;-63
2022/07/13 03:50:48;;;;;;;7.80;5.38;;;21.70;99.90;;;;;;5047554;28;20037;-63
2022/07/13 03:53:15;;;;;;;6.43;5.20;;;21.70;99.90;;;;;;5047484;28;20187;-63
2022/07/13 03:55:42;;;;;;;6.75;5.00;;;21.70;99.90;;;;;;5048260;28;20029;-63
2022/07/13 03:58:08;;;;;;;6.72;5.55;;;21.70;99.90;;;;;;5050257;28;20486;-63
2022/07/13 04:00:34;;;;;;;6.38;5.43;;;21.70;99.90;;;;;;5048942;28;20067;-63
2022/07/13 04:02:59;;;;;;;8.70;5.40;;;21.70;99.90;;;;;;5030780;28;20043;-63
2022/07/13 04:05:26;;;;;;;7.47;5.47;;;21.70;99.90;;;;;;5047557;28;20037;-63
2022/07/13 04:07:52;;;;;;;7.78;5.70;;;21.70;99.90;;;;;;5046134;28;20048;-63
2022/07/13 04:10:18;;;;;;;7.25;4.80;;;21.70;99.90;;;;;;5044581;28;20049;-63
2022/07/13 04:12:45;;;;;;;6.30;5.50;;;21.70;99.90;;;;;;5047296;28;20482;-64
2022/07/13 04:15:12;;;;;;;6.25;5.20;;;21.60;99.90;;;;;;5050691;28;20446;-63
2022/07/13 04:17:38;;;;;;;6.63;4.80;;;21.70;99.90;;;;;;5044762;28;20091;-63
2022/07/13 04:20:04;;;;;;;9.13;5.10;;;21.60;99.90;;;;;;5047763;28;20040;-63
2022/07/13 04:22:30;;;;;;;6.05;5.35;;;21.60;99.90;;;;;;5046874;28;20053;-63
2022/07/13 04:24:56;;;;;;;5.43;4.75;;;21.60;99.90;;;;;;5048336;28;20365;-63
2022/07/13 04:27:21;;;;;;;5.85;5.25;;;21.60;99.90;;;;;;5047627;28;20233;-63
2022/07/13 04:29:47;;;;;;;6.35;5.35;;;21.60;99.90;;;;;;5046342;28;20051;-63
2022/07/13 04:32:13;;;;;;;6.88;5.32;;;21.60;99.90;;;;;;5047236;28;20044;-63
2022/07/13 04:34:38;;;;;;;6.82;5.00;;;21.60;99.90;;;;;;5046683;28;20029;-63
2022/07/13 04:37:04;;;;;;;6.75;4.95;;;21.60;99.90;;;;;;5046541;28;20047;-64
2022/07/13 04:39:31;;;;;;;6.30;4.95;;;21.60;99.90;;;;;;5028728;28;20128;-63
2022/07/13 04:41:57;;;;;;;6.05;4.65;;;21.60;99.90;;;;;;5048134;28;20037;-63
2022/07/13 04:44:25;;;;;;;5.82;4.53;;;21.60;99.90;;;;;;5048701;28;20039;-63
2022/07/13 04:46:51;;;;;;;6.32;5.00;;;21.60;99.90;;;;;;5045795;28;20037;-63
2022/07/13 04:49:19;;;;;;;6.15;5.50;;;21.60;99.90;;;;;;5046539;28;20045;-63
2022/07/13 04:51:45;;;;;;;6.85;4.95;;;21.60;99.90;;;;;;5044921;28;20158;-63
2022/07/13 04:54:11;;;;;;;7.03;4.75;;;21.60;99.90;;;;;;5046155;28;20037;-63
2022/07/13 04:56:36;;;;;;;7.70;4.32;;;21.60;99.90;;;;;;5045684;28;20039;-63
2022/07/13 04:59:03;;;;;;;7.72;4.43;;;21.70;99.90;;;;;;5042796;28;20045;-64
2022/07/13 05:01:29;;;;;;;6.00;4.35;;;21.70;99.90;;;;;;5044285;28;20029;-62
2022/07/13 05:03:54;;;;;;;4.78;4.28;;;21.80;99.90;;;;;;5044267;28;20079;-63
2022/07/13 05:06:20;;;;;;;6.55;4.20;;;21.80;99.90;;;;;;5042358;28;20037;-62
2022/07/13 05:08:45;;;;;;;7.78;4.28;;;21.80;99.90;;;;;;5026240;28;20033;-62
2022/07/13 05:11:11;;;;;;;6.00;4.05;;;22.00;99.90;;;;;;5043842;28;20095;-61
2022/07/13 05:13:37;;;;;;;4.90;3.85;;;22.00;99.90;;;;;;5044857;28;20037;-62
2022/07/13 05:16:03;;;;;;;5.15;3.60;;;22.10;99.90;;;;;;5040098;28;20029;-62
2022/07/13 05:18:29;;;;;;;5.53;3.83;;;22.40;99.90;;;;;;5047575;28;20100;-62
2022/07/13 05:20:54;;;;;;;5.93;3.97;;;22.80;99.90;;;;;;5022958;28;20526;-64
2022/07/13 05:23:20;;;;;;;4.93;3.60;;;22.90;99.90;;;;;;5035019;28;20045;-62
2022/07/13 05:25:46;;;;;;;6.00;3.72;;;23.20;99.90;;;;;;5030105;28;20076;-63
2022/07/13 05:28:11;;;;;;;8.57;3.95;;;23.50;99.90;;;;;;5029046;28;20037;-63
2022/07/13 05:30:37;;;;;;;7.43;4.35;;;24.10;99.90;;;;;;5013978;28;20191;-62
2022/07/13 05:33:03;;;;;;;7.78;4.20;;;24.40;99.90;;;;;;5027591;28;20037;-62
2022/07/13 05:35:28;;;;;;;6.45;3.85;;;24.50;99.90;;;;;;5013258;28;20451;-62
2022/07/13 05:37:54;;;;;;;6.88;3.75;;;24.40;99.90;;;;;;5031779;28;20380;-63
2022/07/13 05:40:21;;;;;;;4.45;3.85;;;24.20;99.90;;;;;;5013455;28;20520;-62
2022/07/13 05:42:46;;;;;;;5.38;3.85;;;24.00;99.90;;;;;;5030496;28;20037;-63
2022/07/13 05:45:12;;;;;;;5.13;3.78;;;24.00;99.90;;;;;;5025771;28;20047;-63
2022/07/13 05:47:42;;;;;;;6.50;3.53;;;23.90;99.90;;;;;;5027387;28;20025;-63
2022/07/13 05:50:12;;;;;;;5.22;3.85;;;23.80;99.90;;;;;;5029166;28;20041;-65
2022/07/13 05:52:37;;;;;;;6.50;4.05;;;23.90;99.90;;;;;;5029543;28;20404;-62
2022/07/13 05:55:03;;;;;;;6.80;3.97;;;23.90;99.90;;;;;;5011690;28;20045;-61
2022/07/13 05:57:30;;;;;;;7.40;4.32;;;24.00;99.90;;;;;;5019007;28;20041;-64
2022/07/13 05:59:55;;;;;;;6.47;4.60;;;24.10;99.90;;;;;;5008130;28;20064;-61
2022/07/13 06:02:21;;;;;;;7.72;5.03;;;24.10;99.90;;;;;;5029127;28;20395;-66
2022/07/13 06:04:48;;;;;;;7.25;4.70;;;24.10;99.90;;;;;;5027515;28;20033;-62
2022/07/13 06:07:16;;;;;;;9.00;4.93;;;24.10;99.90;;;;;;5029006;28;20049;-63
2022/07/13 06:09:42;;;;;;;9.05;4.72;;;24.10;99.90;;;;;;5010145;28;20052;-63
2022/07/13 06:12:07;;;;;;;6.75;5.00;;;24.20;99.90;;;;;;5029261;28;20037;-63
2022/07/13 06:14:33;;;;;;;6.65;4.82;;;24.20;99.90;;;;;;5030130;28;20029;-63
2022/07/13 06:16:59;;;;;;;6.97;4.90;;;24.30;99.90;;;;;;5027303;28;20034;-62
2022/07/13 06:19:24;;;;;;;8.25;5.30;;;24.40;99.90;;;;;;5011976;28;20127;-63
2022/07/13 06:21:50;;;;;;;5.72;5.13;;;24.60;99.90;;;;;;5015875;28;20037;-62
2022/07/13 06:24:16;;;;;;;8.32;5.95;;;24.60;99.90;;;;;;5017216;28;20057;-63
2022/07/13 06:26:42;;;;;;;10.57;7.05;;;24.70;99.90;;;;;;5039468;28;20051;-63
2022/07/13 06:29:07;;;;;;;9.20;6.60;;;24.90;99.90;;;;;;5036482;28;20049;-62
2022/07/13 06:31:33;;;;;;;10.02;7.20;;;25.00;99.90;;;;;;5037377;28;20056;-63
2022/07/13 06:33:59;;;;;;;10.98;7.20;;;25.00;99.90;;;;;;5037216;28;20040;-62
2022/07/13 06:36:24;;;;;;;12.10;7.32;;;25.00;99.90;;;;;;5034994;28;20076;-63
2022/07/13 06:38:50;;;;;;;11.43;7.22;;;25.10;99.90;;;;;;5036411;28;20036;-62
2022/07/13 06:41:16;;;;;;;13.50;7.90;;;25.30;99.90;;;;;;5041382;28;20041;-63
2022/07/13 06:43:42;;;;;;;12.73;8.23;;;25.30;99.90;;;;;;5037588;28;20040;-62
2022/07/13 06:46:08;;;;;;;13.35;7.75;;;25.30;99.90;;;;;;5015547;28;20041;-62
2022/07/13 06:48:37;;;;;;;11.18;8.10;;;25.30;99.90;;;;;;5033745;28;20041;-62
2022/07/13 06:51:03;;;;;;;17.25;8.73;;;25.30;99.90;;;;;;5035875;28;20108;-62
2022/07/13 06:53:29;;;;;;;12.63;8.90;;;25.20;99.90;;;;;;5018832;28;20059;-62
2022/07/13 06:55:55;;;;;;;11.25;9.02;;;25.00;99.90;;;;;;5035503;28;20450;-63
2022/07/13 06:58:21;;;;;;;12.18;8.35;;;25.00;99.90;;;;;;5040366;28;20060;-62
2022/07/13 07:00:47;;;;;;;22.92;9.70;;;25.00;99.90;;;;;;5020172;28;20056;-62
2022/07/13 07:03:13;;;;;;;14.32;9.60;;;25.00;99.90;;;;;;5034059;28;20475;-62
2022/07/13 07:05:39;;;;;;;14.93;9.63;;;25.00;99.90;;;;;;5023495;28;20076;-62
2022/07/13 07:08:05;;;;;;;13.82;9.65;;;25.10;99.90;;;;;;5030723;28;20068;-62
2022/07/13 07:10:31;;;;;;;12.98;9.60;;;25.30;99.90;;;;;;5036252;28;20040;-62
2022/07/13 07:12:57;;;;;;;14.70;9.98;;;25.40;99.90;;;;;;5035401;28;20069;-62
2022/07/13 07:15:23;;;;;;;12.88;10.10;;;25.60;99.90;;;;;;5038056;28;20461;-62
2022/07/13 07:17:49;;;;;;;14.85;8.55;;;25.90;99.90;;;;;;5037049;28;20036;-61
2022/07/13 07:20:17;;;;;;;11.43;8.95;;;26.20;99.90;;;;;;5036607;28;20083;-62
2022/07/13 07:22:43;;;;;;;10.73;7.82;;;26.10;99.90;;;;;;5029578;28;20478;-62
2022/07/13 07:25:09;;;;;;;14.55;8.82;;;26.00;99.90;;;;;;5017286;28;20037;-63
2022/07/13 07:27:35;;;;;;;10.40;8.93;;;26.10;99.90;;;;;;5000912;28;20462;-63
2022/07/13 07:30:03;;;;;;;11.02;9.05;;;26.10;99.90;;;;;;5019103;28;20524;-64
2022/07/13 07:32:28;;;;;;;11.75;8.77;;;26.10;99.90;;;;;;5008383;28;20411;-63
2022/07/13 07:34:54;;;;;;;12.40;8.82;;;26.20;99.90;;;;;;5010754;28;20064;-63
2022/07/13 07:37:21;;;;;;;13.38;9.05;;;26.40;99.90;;;;;;5025068;28;20033;-62
2022/07/13 07:39:47;;;;;;;12.90;9.05;;;26.40;99.90;;;;;;5028616;28;20037;-62
2022/07/13 07:42:13;;;;;;;10.75;7.95;;;26.60;99.90;;;;;;5013354;28;20127;-63
2022/07/13 07:44:38;;;;;;;11.23;9.15;;;26.60;99.90;;;;;;5027049;28;20454;-63
2022/07/13 07:47:04;;;;;;;10.90;8.90;;;26.60;99.90;;;;;;5029381;28;20045;-62
2022/07/13 07:49:30;;;;;;;15.25;9.20;;;26.70;99.90;;;;;;5007070;28;20048;-63
2022/07/13 07:51:56;;;;;;;12.15;8.13;;;26.80;99.90;;;;;;5027129;28;20040;-61
2022/07/13 07:54:21;;;;;;;10.27;7.60;;;26.70;99.90;;;;;;5029478;28;20037;-62
2022/07/13 07:56:48;;;;;;;10.43;7.68;;;26.80;99.90;;;;;;5027434;28;20052;-63
2022/07/13 07:59:14;;;;;;;13.13;7.72;;;27.10;99.90;;;;;;5028854;28;20041;-62
2022/07/13 08:01:41;;;;;;;10.70;7.30;;;27.10;99.90;;;;;;5017456;28;20038;-62
2022/07/13 08:04:06;;;;;;;11.93;8.35;;;27.10;99.90;;;;;;5023349;28;20363;-63
2022/07/13 08:06:32;;;;;;;9.75;7.10;;;27.20;99.90;;;;;;5027052;28;20045;-63
2022/07/13 08:08:58;;;;;;;11.25;7.53;;;27.30;99.90;;;;;;5012327;28;20041;-62
2022/07/13 08:11:23;;;;;;;8.38;6.68;;;27.30;99.90;;;;;;5027830;28;20037;-62
2022/07/13 08:13:51;;;;;;;10.15;7.15;;;27.40;99.90;;;;;;5027879;28;20125;-62
2022/07/13 08:16:17;;;;;;;11.80;7.90;;;27.40;99.90;;;;;;5026660;28;20068;-62
2022/07/13 08:18:43;;;;;;;10.05;7.28;;;27.40;99.90;;;;;;5007800;28;20052;-62
2022/07/13 08:21:09;;;;;;;11.10;7.45;;;27.30;99.90;;;;;;5026988;28;20107;-62
2022/07/13 08:23:54;;;;;;;9.10;7.55;;;27.20;99.90;;;;;;5011005;28;20414;-62
2022/07/13 08:26:26;;;;;;;12.98;7.53;;;27.20;99.90;;;;;;5008259;28;20478;-62
2022/07/13 08:28:52;;;;;;;9.50;6.20;;;27.30;99.90;;;;;;5011395;28;20037;-62
2022/07/13 08:31:21;;;;;;;9.90;6.50;;;27.30;99.90;;;;;;5005822;28;20049;-61
2022/07/13 08:39:17;;;;;;;15.82;7.38;;;27.10;99.90;;;;;;5028278;28;20454;-62
2022/07/13 08:41:43;;;;;;;9.38;6.30;;;27.00;99.90;;;;;;5027687;28;20051;-61
2022/07/13 08:44:09;;;;;;;8.80;5.90;;;27.00;99.90;;;;;;5026197;28;20045;-62
2022/07/13 08:46:35;;;;;;;10.57;6.68;;;26.90;99.90;;;;;;5028618;28;20422;-62
2022/07/13 08:49:02;;;;;;;10.20;6.63;;;26.90;99.90;;;;;;5027795;28;20450;-61
2022/07/13 08:51:31;;;;;;;8.45;6.22;;;26.70;99.90;;;;;;5026096;28;20414;-63
2022/07/13 08:53:57;;;;;;;8.77;6.30;;;26.80;99.90;;;;;;5009278;28;20506;-63
2022/07/13 08:56:23;;;;;;;10.52;6.30;;;26.70;99.90;;;;;;5024960;28;20060;-62
2022/07/13 08:58:49;;;;;;;10.85;6.97;;;26.80;99.90;;;;;;5027506;28;20395;-62
2022/07/13 09:01:15;;;;;;;8.32;6.50;;;26.90;99.90;;;;;;5028341;28;20432;-62
2022/07/13 09:03:42;;;;;;;12.13;5.50;;;26.70;99.90;;;;;;5024510;28;20538;-62
2022/07/13 09:06:08;;;;;;;10.70;5.80;;;26.70;99.90;;;;;;5010238;28;20041;-63
2022/07/13 09:08:43;;;;;;;8.25;5.32;;;26.80;99.90;;;;;;5026301;28;20429;-62
2022/07/13 09:11:09;;;;;;;8.95;5.60;;;26.70;99.90;;;;;;5009782;28;20053;-62
2022/07/13 09:13:45;;;;;;;9.52;5.65;;;26.60;99.90;;;;;;5026311;28;20049;-62
2022/07/13 09:16:15;;;;;;;11.73;6.38;;;26.70;99.90;;;;;;5026101;28;20052;-62
2022/07/13 09:18:46;;;;;;;7.25;5.28;;;26.80;99.90;;;;;;5024981;28;20044;-62
2022/07/13 09:21:12;;;;;;;9.95;5.75;;;26.70;99.90;;;;;;5019568;28;20057;-62
2022/07/13 09:23:37;;;;;;;9.77;6.03;;;26.80;99.90;;;;;;5026389;28;20391;-62
2022/07/13 09:26:03;;;;;;;11.38;6.45;;;26.80;99.90;;;;;;5028333;28;20367;-62
2022/07/13 09:28:42;;;;;;;7.97;5.60;;;26.90;99.90;;;;;;5011866;28;20033;-63
2022/07/13 09:31:08;;;;;;;10.57;6.53;;;27.10;99.90;;;;;;5022291;28;20080;-62
2022/07/13 09:33:35;;;;;;;11.75;6.03;;;27.10;99.90;;;;;;5025556;28;20113;-62
2022/07/13 09:36:13;;;;;;;13.52;7.25;;;27.10;99.90;;;;;;5023721;28;20073;-62
2022/07/13 09:38:44;;;;;;;10.80;6.38;;;27.10;99.90;;;;;;5024364;28;20132;-64
2022/07/13 09:41:18;;;;;;;8.70;5.82;;;26.90;99.90;;;;;;5027316;28;20117;-64
2022/07/13 09:46:57;;;;;;;8.77;6.15;;;27.10;99.90;;;;;;5027002;28;20038;-62
2022/07/13 09:49:30;;;;;;;10.27;5.50;;;27.20;99.90;;;;;;5026229;28;20090;-61
2022/07/13 09:51:59;;;;;;;13.05;5.72;;;27.30;99.90;;;;;;5007587;28;20037;-62
2022/07/13 09:54:29;;;;;;;8.88;5.38;;;27.40;99.90;;;;;;5024999;28;20378;-62
2022/07/13 09:57:19;;;;;;;11.70;5.75;;;27.30;99.90;;;;;;5009426;28;20030;-61
2022/07/13 09:59:45;;;;;;;6.95;5.10;;;27.30;99.90;;;;;;5026132;28;20049;-62
2022/07/13 10:02:11;;;;;;;8.45;4.85;;;27.40;99.90;;;;;;5026009;28;20363;-62
2022/07/13 10:04:38;;;;;;;9.57;4.95;;;27.40;99.90;;;;;;5031232;28;20320;-62
2022/07/13 10:07:08;;;;;;;14.35;5.40;;;27.50;99.90;;;;;;5027957;28;20037;-62
2022/07/13 10:09:38;;;;;;;7.40;4.45;;;27.40;99.90;;;;;;5029613;28;20333;-62
2022/07/13 10:12:08;;;;;;;7.97;4.53;;;27.30;99.90;;;;;;5012128;28;20081;-62
2022/07/13 10:14:34;;;;;;;8.35;4.18;;;27.30;99.90;;;;;;5030564;28;20051;-62
2022/07/13 10:17:01;;;;;;;9.35;4.97;;;27.40;99.90;;;;;;5028001;28;20041;-61
2022/07/13 10:19:29;;;;;;;8.38;4.50;;;27.40;99.90;;;;;;5008484;28;20042;-61
2022/07/13 10:22:11;;;;;;;7.88;4.57;;;27.40;99.90;;;;;;5031401;28;20033;-61
2022/07/13 10:24:37;;;;;;;6.13;4.30;;;27.50;99.90;;;;;;5050447;28;20052;-62
2022/07/13 10:27:21;;;;;;;10.48;4.20;;;27.50;99.90;;;;;;5033005;28;20048;-62
2022/07/13 10:29:50;;;;;;;;;;;27.60;99.90;;;;;;5047033;28;20098;-62
2022/07/13 10:32:46;;;;;;;8.23;4.63;;;27.50;99.90;;;;;;5045454;28;19917;-61
2022/07/13 10:35:16;;;;;;;9.02;4.85;;;27.60;99.90;;;;;;5049843;28;20366;-62
2022/07/13 10:38:02;;;;;;;7.15;4.07;;;27.70;99.90;;;;;;5048400;28;20029;-62
2022/07/13 10:40:32;;;;;;;6.18;3.30;;;27.80;99.90;;;;;;5045208;28;20075;-62
2022/07/13 10:42:58;;;;;;;6.63;3.45;;;27.80;99.90;;;;;;5047423;28;20033;-62
2022/07/13 10:45:38;;;;;;;4.45;3.30;;;28.00;99.90;;;;;;5050647;28;20090;-62
2022/07/13 10:48:18;;;;;;;5.63;4.00;;;28.10;99.90;;;;;;5044208;28;20053;-61
2022/07/13 10:50:49;;;;;;;9.05;4.03;;;28.10;99.90;;;;;;5047343;28;20087;-61
2022/07/13 10:53:18;;;;;;;5.78;3.55;;;28.30;99.90;;;;;;5044157;28;20450;-62
2022/07/13 10:55:48;;;;;;;6.70;4.35;;;28.40;99.90;;;;;;5046254;28;20060;-61
2022/07/13 10:58:29;;;;;;;12.27;4.20;;;28.20;99.90;;;;;;5044685;28;20041;-62
2022/07/13 11:00:56;;;;;;;9.32;4.38;;;28.40;99.90;;;;;;5046154;28;20354;-61
2022/07/13 11:03:29;;;;;;;9.13;4.22;;;28.40;99.90;;;;;;5042085;28;20073;-61
2022/07/13 11:06:08;;;;;;;8.05;3.85;;;28.50;99.90;;;;;;5044659;28;20036;-61
2022/07/13 11:08:34;;;;;;;9.68;4.25;;;28.50;99.60;;;;;;5025561;28;20041;-61
2022/07/13 11:11:17;;;;;;;5.95;3.25;;;28.40;99.60;;;;;;5044561;28;20028;-62
2022/07/13 11:13:45;;;;;;;7.05;3.85;;;28.40;99.60;;;;;;5028039;28;20041;-61
2022/07/13 11:16:48;;;;;;;5.50;3.47;;;28.50;99.70;;;;;;5045309;28;20386;-61
2022/07/13 11:19:15;;;;;;;7.65;4.05;;;28.60;99.30;;;;;;5047779;28;20037;-62
2022/07/13 11:22:03;;;;;;;9.80;3.78;;;28.70;99.60;;;;;;5028023;28;20036;-61
2022/07/13 11:27:22;;;;;;;5.60;3.88;;;28.80;99.50;;;;;;5032261;28;20052;-62
2022/07/13 11:29:58;;;;;;;6.55;3.10;;;28.60;99.10;;;;;;5048390;28;20114;-62
2022/07/13 11:32:25;;;;;;;6.13;3.20;;;28.50;98.50;;;;;;5046884;28;20064;-62
2022/07/13 11:34:52;;;;;;;6.47;3.08;;;28.60;99.00;;;;;;5047124;28;20029;-62
2022/07/13 11:37:24;;;;;;;6.90;2.63;;;28.60;98.70;;;;;;5045878;28;20034;-62
2022/07/13 11:39:50;;;;;;;5.10;2.60;;;28.50;97.90;;;;;;5048792;28;20032;-62
2022/07/13 11:42:20;;;;;;;8.02;2.60;;;28.60;97.70;;;;;;5051029;28;20033;-61
2022/07/13 11:44:50;;;;;;;5.85;2.67;;;28.70;97.50;;;;;;5045264;28;20033;-63
2022/07/13 11:47:15;;;;;;;7.68;2.70;;;28.70;97.30;;;;;;5046621;28;20354;-62
2022/07/13 11:49:50;;;;;;;6.40;2.65;;;28.80;97.20;;;;;;5045604;28;20504;-62
2022/07/13 11:52:24;;;;;;;7.10;2.60;;;28.80;97.20;;;;;;5047166;28;20033;-62
2022/07/13 11:55:04;;;;;;;8.00;2.65;;;28.90;97.20;;;;;;5049103;28;20032;-61
2022/07/13 11:57:31;;;;;;;6.30;2.40;;;28.80;97.30;;;;;;5046878;28;20056;-62
2022/07/13 12:00:06;;;;;;;5.45;3.20;;;28.90;96.90;;;;;;5048296;28;20048;-62
2022/07/13 12:02:32;;;;;;;8.90;3.10;;;28.80;96.90;;;;;;5028615;28;20098;-61
2022/07/13 12:04:58;;;;;;;6.22;3.50;;;28.50;97.20;;;;;;5041828;28;20041;-63
2022/07/13 12:07:28;;;;;;;7.47;3.72;;;28.40;98.00;;;;;;5048653;28;20032;-61
2022/07/13 12:10:00;;;;;;;6.28;3.50;;;28.30;98.80;;;;;;5032673;28;20048;-62
2022/07/13 12:12:36;;;;;;;7.35;3.30;;;28.20;98.80;;;;;;5047375;28;20041;-61
2022/07/13 12:15:03;;;;;;;8.55;3.38;;;28.30;99.30;;;;;;5045450;28;20488;-62
2022/07/13 12:17:31;;;;;;;6.07;3.25;;;28.20;98.60;;;;;;5045638;28;20052;-62
2022/07/13 12:20:15;;;;;;;6.88;2.72;;;28.30;99.00;;;;;;5032397;28;20036;-61
2022/07/13 12:22:54;;;;;;;4.55;2.38;;;28.50;98.30;;;;;;5045089;28;20037;-63
2022/07/13 12:25:33;;;;;;;5.65;2.53;;;28.50;97.10;;;;;;5031944;28;20385;-62
2022/07/13 12:28:00;;;;;;;7.63;2.70;;;28.50;97.10;;;;;;5050532;28;20064;-62
2022/07/13 12:30:28;;;;;;;6.20;2.85;;;28.50;96.50;;;;;;5043671;28;20041;-62
2022/07/13 12:33:06;;;;;;;7.43;2.35;;;28.50;96.50;;;;;;5044217;28;20365;-62
2022/07/13 12:35:37;;;;;;;6.50;2.40;;;28.70;96.10;;;;;;5046102;28;20048;-61
2022/07/13 12:38:08;;;;;;;7.57;2.60;;;28.60;96.00;;;;;;5048483;28;20347;-61
2022/07/13 12:40:55;;;;;;;4.07;2.17;;;28.60;95.70;;;;;;5059316;28;20029;-61
2022/07/13 12:43:26;;;;;;;5.00;2.30;;;28.70;95.50;;;;;;5056319;28;20025;-61
2022/07/13 12:45:53;;;;;;;5.03;2.63;;;28.60;96.10;;;;;;5058197;28;20037;-61
2022/07/13 12:48:23;;;;;;;3.30;2.20;;;28.30;96.50;;;;;;5044253;28;20041;-62
2022/07/13 12:51:09;;;;;;;4.22;2.30;;;28.20;96.80;;;;;;5051844;28;20037;-64
2022/07/13 12:53:51;;;;;;;3.70;2.60;;;28.30;96.50;;;;;;5033267;28;20144;-63
2022/07/13 12:56:19;;;;;;;2.88;1.95;;;28.00;96.00;;;;;;5049333;28;20106;-61
2022/07/13 12:58:47;;;;;;;3.95;2.30;;;28.00;96.40;;;;;;5049101;28;20037;-62
2022/07/13 13:01:34;;;;;;;3.40;2.40;;;27.80;96.60;;;;;;5035017;28;20073;-63